createdAt,value
2018-07-07T00:00:27.721Z,3.80
2018-07-07T00:03:04.825Z,3.27
2018-07-07T00:05:42.635Z,4.07
2018-07-07T00:08:19.367Z,4.27
2018-07-07T00:10:58.115Z,3.47
2018-07-07T00:13:35.007Z,4.30
2018-07-07T00:16:11.951Z,4.00
2018-07-07T00:18:49.027Z,4.37
2018-07-07T00:21:25.546Z,4.23
2018-07-07T00:24:03.120Z,3.93
2018-07-07T00:26:40.719Z,3.77
2018-07-07T00:29:17.196Z,4.50
2018-07-07T00:31:54.109Z,4.20
2018-07-07T00:34:31.563Z,4.60
2018-07-07T00:37:08.990Z,3.33
2018-07-07T00:39:45.823Z,3.30
2018-07-07T00:42:22.614Z,4.20
2018-07-07T00:44:59.590Z,4.10
2018-07-07T00:47:36.872Z,3.50
2018-07-07T00:50:13.412Z,3.47
2018-07-07T00:52:50.095Z,4.30
2018-07-07T00:55:27.235Z,5.70
2018-07-07T00:58:04.415Z,4.50
2018-07-07T01:00:49.733Z,3.93
2018-07-07T01:03:27.462Z,4.00
2018-07-07T01:06:04.545Z,3.47
2018-07-07T01:08:41.117Z,3.13
2018-07-07T01:11:18.022Z,3.10
2018-07-07T01:13:55.143Z,4.30
2018-07-07T01:16:32.183Z,4.50
2018-07-07T01:19:08.850Z,4.10
2018-07-07T01:21:45.994Z,5.10
2018-07-07T01:24:22.604Z,3.90
2018-07-07T01:27:00.235Z,4.67
2018-07-07T01:29:37.590Z,4.80
2018-07-07T01:32:14.353Z,4.53
2018-07-07T01:34:51.609Z,3.90
2018-07-07T01:37:27.655Z,5.47
2018-07-07T01:40:04.487Z,7.00
2018-07-07T01:42:41.332Z,4.60
2018-07-07T01:45:18.135Z,4.70
2018-07-07T01:47:55.626Z,3.77
2018-07-07T01:50:32.317Z,3.77
2018-07-07T01:53:09.588Z,4.30
2018-07-07T01:55:47.069Z,4.13
2018-07-07T01:58:24.269Z,3.50
2018-07-07T02:01:01.212Z,4.13
2018-07-07T02:03:37.983Z,3.77
2018-07-07T02:06:14.815Z,3.60
2018-07-07T02:08:51.766Z,4.50
2018-07-07T02:11:28.764Z,5.83
2018-07-07T02:14:05.655Z,4.00
2018-07-07T02:16:42.702Z,3.50
2018-07-07T02:19:19.500Z,4.57
2018-07-07T02:21:56.241Z,4.80
2018-07-07T02:24:33.255Z,3.70
2018-07-07T02:27:10.544Z,3.00
2018-07-07T02:29:47.415Z,4.20
2018-07-07T02:32:24.045Z,3.83
2018-07-07T02:35:01.279Z,5.57
2018-07-07T02:37:38.044Z,3.93
2018-07-07T02:40:14.738Z,4.70
2018-07-07T02:42:51.628Z,4.30
2018-07-07T02:45:28.491Z,5.20
2018-07-07T02:48:05.439Z,4.40
2018-07-07T02:50:44.720Z,4.43
2018-07-07T02:53:23.210Z,4.00
2018-07-07T02:56:01.992Z,3.97
2018-07-07T02:58:39.633Z,4.50
2018-07-07T03:01:17.351Z,4.10
2018-07-07T03:03:54.905Z,4.80
2018-07-07T03:06:32.820Z,4.03
2018-07-07T03:09:11.275Z,4.50
2018-07-07T03:11:48.634Z,4.03
2018-07-07T03:14:26.979Z,4.70
2018-07-07T03:17:04.437Z,4.40
2018-07-07T03:19:42.689Z,4.13
2018-07-07T03:25:24.379Z,6.80
2018-07-07T03:28:02.300Z,4.50
2018-07-07T03:30:39.928Z,4.90
2018-07-07T03:33:17.202Z,4.60
2018-07-07T03:35:55.919Z,4.87
2018-07-07T03:38:35.175Z,4.63
2018-07-07T03:41:12.501Z,3.90
2018-07-07T03:43:50.548Z,4.10
2018-07-07T03:46:28.099Z,4.47
2018-07-07T03:49:05.703Z,5.10
2018-07-07T03:51:43.021Z,4.43
2018-07-07T03:54:21.842Z,4.10
2018-07-07T03:57:00.582Z,4.90
2018-07-07T03:59:37.992Z,4.27
2018-07-07T04:02:16.006Z,4.60
2018-07-07T04:04:53.847Z,4.70
2018-07-07T04:07:30.896Z,4.40
2018-07-07T04:10:07.795Z,4.50
2018-07-07T04:12:45.182Z,3.80
2018-07-07T04:15:22.661Z,3.73
2018-07-07T04:17:59.545Z,3.53
2018-07-07T04:20:36.820Z,4.77
2018-07-07T04:23:13.576Z,5.70
2018-07-07T04:25:50.518Z,4.47
2018-07-07T04:28:27.666Z,4.70
2018-07-07T04:31:04.444Z,3.63
2018-07-07T04:33:41.165Z,4.83
2018-07-07T04:36:18.127Z,3.37
2018-07-07T04:38:55.323Z,4.50
2018-07-07T04:41:32.199Z,4.20
2018-07-07T04:44:08.920Z,3.73
2018-07-07T04:46:45.764Z,4.40
2018-07-07T04:49:23.039Z,4.70
2018-07-07T04:52:00.019Z,6.00
2018-07-07T04:54:36.746Z,3.83
2018-07-07T04:57:13.728Z,4.37
2018-07-07T04:59:50.378Z,3.90
2018-07-07T05:02:27.526Z,4.10
2018-07-07T05:05:04.619Z,3.90
2018-07-07T05:07:41.539Z,4.50
2018-07-07T05:10:18.008Z,4.60
2018-07-07T05:12:55.591Z,3.50
2018-07-07T05:15:32.203Z,4.20
2018-07-07T05:18:09.310Z,4.73
2018-07-07T05:20:46.359Z,4.00
2018-07-07T05:23:23.109Z,5.07
2018-07-07T05:26:00.105Z,4.17
2018-07-07T05:28:36.835Z,5.07
2018-07-07T05:31:13.759Z,3.87
2018-07-07T05:34:09.620Z,3.87
2018-07-07T05:36:46.441Z,4.63
2018-07-07T05:39:23.388Z,4.30
2018-07-07T05:42:00.026Z,4.03
2018-07-07T05:44:36.917Z,3.80
2018-07-07T05:47:13.783Z,4.00
2018-07-07T05:49:50.912Z,5.10
2018-07-07T05:52:27.828Z,4.40
2018-07-07T05:55:06.502Z,5.20
2018-07-07T05:57:43.910Z,5.00
2018-07-07T06:00:20.234Z,4.30
2018-07-07T06:02:57.395Z,4.00
2018-07-07T06:05:34.652Z,4.47
2018-07-07T06:08:11.262Z,4.90
2018-07-07T06:10:48.187Z,4.60
2018-07-07T06:13:25.228Z,4.27
2018-07-07T06:16:02.418Z,6.10
2018-07-07T06:18:39.015Z,4.43
2018-07-07T06:21:16.312Z,6.33
2018-07-07T06:23:52.720Z,5.80
2018-07-07T06:26:29.944Z,5.50
2018-07-07T06:29:07.637Z,5.60
2018-07-07T06:31:44.911Z,6.60
2018-07-07T06:34:21.986Z,5.10
2018-07-07T06:36:59.063Z,5.43
2018-07-07T06:39:35.865Z,4.53
2018-07-07T06:42:13.033Z,5.50
2018-07-07T06:44:49.667Z,5.80
2018-07-07T06:47:26.388Z,6.70
2018-07-07T06:50:03.538Z,5.70
2018-07-07T06:52:40.658Z,5.80
2018-07-07T06:55:17.398Z,5.80
2018-07-07T06:57:54.289Z,5.47
2018-07-07T07:00:33.980Z,4.80
2018-07-07T07:03:10.720Z,5.97
2018-07-07T07:05:47.846Z,6.50
2018-07-07T07:08:24.887Z,5.33
2018-07-07T07:11:02.667Z,5.33
2018-07-07T07:13:40.281Z,5.80
2018-07-07T07:16:17.052Z,4.70
2018-07-07T07:18:53.822Z,5.63
2018-07-07T07:21:30.866Z,7.23
2018-07-07T07:24:07.763Z,5.63
2018-07-07T07:26:44.642Z,5.17
2018-07-07T07:29:21.427Z,5.17
2018-07-07T07:31:58.339Z,5.73
2018-07-07T07:37:38.975Z,5.30
2018-07-07T07:40:16.036Z,4.30
2018-07-07T07:42:52.850Z,3.80
2018-07-07T07:45:29.856Z,4.00
2018-07-07T07:48:07.500Z,4.47
2018-07-07T07:50:44.224Z,4.90
2018-07-07T07:53:21.080Z,5.00
2018-07-07T07:55:58.196Z,5.27
2018-07-07T07:58:35.520Z,5.50
2018-07-07T08:01:12.446Z,4.57
2018-07-07T08:03:49.559Z,5.00
2018-07-07T08:06:26.828Z,4.43
2018-07-07T08:09:04.553Z,6.00
2018-07-07T08:11:41.877Z,6.10
2018-07-07T08:14:18.932Z,5.87
2018-07-07T08:16:55.610Z,5.73
2018-07-07T08:19:32.414Z,8.47
2018-07-07T08:22:10.199Z,5.10
2018-07-07T08:24:47.183Z,6.80
2018-07-07T08:27:23.630Z,6.10
2018-07-07T08:30:00.820Z,6.17
2018-07-07T08:32:38.132Z,5.43
2018-07-07T08:35:15.467Z,5.60
2018-07-07T08:37:52.208Z,6.07
2018-07-07T08:40:30.039Z,4.90
2018-07-07T08:43:07.480Z,5.00
2018-07-07T08:45:44.857Z,5.17
2018-07-07T08:48:21.822Z,6.30
2018-07-07T08:50:58.696Z,4.97
2018-07-07T08:53:35.653Z,5.30
2018-07-07T08:56:12.673Z,5.30
2018-07-07T08:58:49.573Z,4.20
2018-07-07T09:01:37.105Z,4.87
2018-07-07T09:04:14.226Z,5.67
2018-07-07T09:06:51.428Z,4.10
2018-07-07T09:09:28.237Z,4.40
2018-07-07T09:12:05.140Z,5.17
2018-07-07T09:14:41.912Z,4.37
2018-07-07T09:17:18.829Z,4.43
2018-07-07T09:19:55.770Z,4.10
2018-07-07T09:22:32.689Z,5.90
2018-07-07T09:25:09.723Z,4.70
2018-07-07T09:27:46.187Z,5.37
2018-07-07T09:30:23.212Z,3.97
2018-07-07T09:33:00.204Z,3.17
2018-07-07T09:35:36.981Z,3.17
2018-07-07T09:38:13.877Z,5.10
2018-07-07T09:40:51.042Z,3.30
2018-07-07T09:43:27.259Z,3.63
2018-07-07T09:46:03.625Z,3.03
2018-07-07T09:48:40.592Z,3.07
2018-07-07T09:51:17.684Z,2.73
2018-07-07T09:53:54.666Z,3.60
2018-07-07T09:56:43.272Z,3.10
2018-07-07T09:59:20.452Z,2.93
2018-07-07T10:01:57.227Z,3.20
2018-07-07T10:04:34.421Z,2.80
2018-07-07T10:07:11.188Z,3.57
2018-07-07T10:09:48.274Z,4.00
2018-07-07T10:12:27.262Z,3.47
2018-07-07T10:15:04.728Z,3.93
2018-07-07T10:17:41.441Z,3.63
2018-07-07T10:20:18.488Z,4.03
2018-07-07T10:22:55.718Z,3.83
2018-07-07T10:25:32.421Z,3.10
2018-07-07T10:28:09.524Z,3.67
2018-07-07T10:30:46.240Z,3.70
2018-07-07T10:33:22.454Z,2.70
2018-07-07T10:35:58.903Z,4.27
2018-07-07T10:38:35.728Z,3.67
2018-07-07T10:41:12.268Z,3.40
2018-07-07T10:43:49.102Z,3.57
2018-07-07T10:46:25.889Z,2.83
2018-07-07T10:49:02.872Z,3.30
2018-07-07T10:51:40.987Z,3.87
2018-07-07T10:54:22.193Z,2.90
2018-07-07T10:56:59.111Z,3.07
2018-07-07T10:59:35.900Z,2.80
2018-07-07T11:02:12.907Z,3.03
2018-07-07T11:04:49.731Z,3.13
2018-07-07T11:07:26.635Z,2.80
2018-07-07T11:10:03.867Z,2.30
2018-07-07T11:12:40.424Z,2.93
2018-07-07T11:15:17.403Z,3.53
2018-07-07T11:17:54.524Z,2.70
2018-07-07T11:20:31.206Z,1.90
2018-07-07T11:23:08.861Z,2.10
2018-07-07T11:25:46.234Z,3.07
2018-07-07T11:28:23.312Z,2.80
2018-07-07T11:31:00.212Z,2.30
2018-07-07T11:33:36.869Z,2.37
2018-07-07T11:36:14.620Z,1.80
2018-07-07T11:38:51.816Z,2.03
2018-07-07T11:41:28.891Z,2.80
2018-07-07T11:44:06.913Z,3.00
2018-07-07T11:46:44.183Z,1.70
2018-07-07T11:49:21.728Z,2.70
2018-07-07T11:51:58.187Z,2.20
2018-07-07T11:54:34.999Z,2.27
2018-07-07T11:57:11.950Z,2.33
2018-07-07T11:59:48.942Z,2.43
2018-07-07T12:02:26.511Z,2.77
2018-07-07T12:05:03.653Z,2.20
2018-07-07T12:07:40.842Z,2.40
2018-07-07T12:10:18.163Z,2.70
2018-07-07T12:12:55.186Z,2.13
2018-07-07T12:15:32.134Z,2.40
2018-07-07T12:18:08.478Z,6.17
2018-07-07T12:20:45.809Z,2.73
2018-07-07T12:23:22.466Z,2.23
2018-07-07T12:25:59.710Z,2.50
2018-07-07T12:28:36.786Z,2.27
2018-07-07T12:31:14.730Z,2.80
2018-07-07T12:33:51.384Z,2.90
2018-07-07T12:36:28.178Z,2.53
2018-07-07T12:39:06.681Z,2.57
2018-07-07T12:41:44.015Z,2.33
2018-07-07T12:44:20.332Z,2.70
2018-07-07T12:47:00.987Z,3.17
2018-07-07T12:49:38.345Z,6.60
2018-07-07T12:52:15.400Z,3.13
2018-07-07T12:54:52.395Z,3.13
2018-07-07T12:57:29.392Z,2.30
2018-07-07T13:00:06.044Z,3.30
2018-07-07T13:02:42.975Z,2.70
2018-07-07T13:05:19.587Z,3.13
2018-07-07T13:07:56.619Z,4.00
2018-07-07T13:10:33.197Z,4.20
2018-07-07T13:13:09.919Z,3.33
2018-07-07T13:15:46.171Z,2.90
2018-07-07T13:18:22.558Z,2.73
2018-07-07T13:20:58.978Z,2.57
2018-07-07T13:23:36.055Z,2.97
2018-07-07T13:26:12.941Z,3.37
2018-07-07T13:28:49.278Z,3.30
2018-07-07T13:31:26.237Z,3.87
2018-07-07T13:34:02.952Z,3.20
2018-07-07T13:36:39.673Z,2.80
2018-07-07T13:39:16.756Z,3.90
2018-07-07T13:41:54.134Z,3.90
2018-07-07T13:44:30.933Z,2.73
2018-07-07T13:47:09.972Z,3.63
2018-07-07T13:52:53.453Z,2.70
2018-07-07T13:55:29.667Z,2.93
2018-07-07T13:58:06.226Z,2.40
2018-07-07T14:00:43.342Z,2.40
2018-07-07T14:03:20.173Z,2.20
2018-07-07T14:05:56.832Z,2.93
2018-07-07T14:08:33.893Z,2.67
2018-07-07T14:11:10.579Z,2.90
2018-07-07T14:13:47.398Z,3.00
2018-07-07T14:16:24.231Z,2.83
2018-07-07T14:19:01.086Z,2.40
2018-07-07T14:21:37.827Z,1.97
2018-07-07T14:24:14.927Z,2.30
2018-07-07T14:26:51.896Z,3.40
2018-07-07T14:29:28.636Z,2.97
2018-07-07T14:32:05.360Z,2.67
2018-07-07T14:34:41.666Z,2.47
2018-07-07T14:37:17.753Z,2.43
2018-07-07T14:40:00.769Z,2.57
2018-07-07T14:42:49.357Z,2.50
2018-07-07T14:45:29.059Z,2.00
2018-07-07T14:48:06.083Z,2.73
2018-07-07T14:50:42.770Z,2.27
2018-07-07T14:53:19.801Z,2.60
2018-07-07T14:55:56.580Z,2.87
2018-07-07T14:58:33.488Z,2.40
2018-07-07T15:01:11.059Z,3.47
2018-07-07T15:03:48.191Z,2.10
2018-07-07T15:06:25.303Z,1.90
2018-07-07T15:09:01.307Z,2.67
2018-07-07T15:11:37.237Z,2.90
2018-07-07T15:14:13.526Z,2.50
2018-07-07T15:16:49.980Z,2.53
2018-07-07T15:19:26.089Z,3.37
2018-07-07T15:22:02.786Z,2.17
2018-07-07T15:24:39.706Z,2.90
2018-07-07T15:27:16.455Z,2.17
2018-07-07T15:29:53.524Z,2.40
2018-07-07T15:32:30.273Z,2.40
2018-07-07T15:35:07.116Z,2.57
2018-07-07T15:37:43.828Z,3.10
2018-07-07T15:40:20.920Z,2.33
2018-07-07T15:42:57.616Z,3.00
2018-07-07T15:45:34.129Z,2.20
2018-07-07T15:48:10.755Z,2.13
2018-07-07T15:50:47.726Z,2.57
2018-07-07T15:53:24.212Z,2.63
2018-07-07T15:56:00.466Z,2.20
2018-07-07T15:58:37.190Z,2.83
2018-07-07T16:01:13.650Z,2.23
2018-07-07T16:03:50.159Z,2.53
2018-07-07T16:06:27.310Z,2.57
2018-07-07T16:09:04.780Z,2.00
2018-07-07T16:11:41.980Z,2.23
2018-07-07T16:14:19.119Z,2.73
2018-07-07T16:16:55.999Z,2.10
2018-07-07T16:19:32.273Z,2.50
2018-07-07T16:22:08.589Z,2.40
2018-07-07T16:24:45.429Z,2.23
2018-07-07T16:27:22.227Z,2.50
2018-07-07T16:29:59.179Z,2.87
2018-07-07T16:32:36.130Z,2.00
2018-07-07T16:35:12.856Z,2.43
2018-07-07T16:37:49.937Z,2.07
2018-07-07T16:40:26.858Z,2.87
2018-07-07T16:43:03.122Z,2.37
2018-07-07T16:45:39.619Z,2.10
2018-07-07T16:48:15.526Z,2.10
2018-07-07T16:50:51.919Z,2.80
2018-07-07T16:53:28.787Z,2.13
2018-07-07T16:56:05.656Z,2.17
2018-07-07T16:58:42.685Z,2.97
2018-07-07T17:01:19.557Z,2.33
2018-07-07T17:03:56.718Z,2.30
2018-07-07T17:06:32.743Z,2.77
2018-07-07T17:09:09.254Z,2.33
2018-07-07T17:11:45.234Z,2.47
2018-07-07T17:14:23.787Z,1.70
2018-07-07T17:16:59.625Z,2.10
2018-07-07T17:19:36.101Z,1.80
2018-07-07T17:22:12.822Z,1.67
2018-07-07T17:24:49.044Z,1.90
2018-07-07T17:27:25.504Z,2.23
2018-07-07T17:30:02.357Z,2.30
2018-07-07T17:32:39.430Z,2.70
2018-07-07T17:35:15.423Z,2.50
2018-07-07T17:37:52.369Z,2.03
2018-07-07T17:40:28.843Z,3.60
2018-07-07T17:43:05.353Z,2.47
2018-07-07T17:45:41.781Z,2.80
2018-07-07T17:48:18.247Z,4.43
2018-07-07T17:50:54.247Z,2.63
2018-07-07T17:53:30.571Z,3.47
2018-07-07T17:56:07.524Z,3.63
2018-07-07T17:58:45.035Z,3.20
2018-07-07T18:01:22.436Z,3.20
2018-07-07T18:03:59.372Z,2.60
2018-07-07T18:06:36.235Z,2.50
2018-07-07T18:09:13.840Z,2.20
2018-07-07T18:11:50.378Z,2.07
2018-07-07T18:14:27.440Z,2.43
2018-07-07T18:17:03.754Z,2.23
2018-07-07T18:19:40.790Z,1.80
2018-07-07T18:22:17.383Z,2.23
2018-07-07T18:24:54.103Z,2.10
2018-07-07T18:27:30.607Z,2.27
2018-07-07T18:30:06.799Z,2.60
2018-07-07T18:32:43.607Z,3.13
2018-07-07T18:35:20.624Z,2.50
2018-07-07T18:37:57.450Z,3.60
2018-07-07T18:40:34.500Z,3.93
2018-07-07T18:43:11.331Z,4.17
2018-07-07T18:45:47.975Z,2.93
2018-07-07T18:48:24.785Z,3.17
2018-07-07T18:51:01.572Z,2.57
2018-07-07T18:53:37.948Z,3.90
2018-07-07T18:56:14.158Z,3.10
2018-07-07T18:58:51.505Z,2.60
2018-07-07T19:01:28.076Z,2.47
2018-07-07T19:04:06.138Z,2.33
2018-07-07T19:06:42.159Z,2.27
2018-07-07T19:09:18.555Z,5.33
2018-07-07T19:11:55.695Z,2.50
2018-07-07T19:14:32.570Z,3.10
2018-07-07T19:17:09.180Z,3.00
2018-07-07T19:19:45.963Z,3.80
2018-07-07T19:22:28.074Z,2.53
2018-07-07T19:25:09.934Z,4.83
2018-07-07T19:27:47.004Z,2.97
2018-07-07T19:30:23.650Z,4.63
2018-07-07T19:33:05.467Z,4.20
2018-07-07T19:35:47.432Z,5.70
2018-07-07T19:38:23.983Z,3.63
2018-07-07T19:41:00.966Z,2.87
2018-07-07T19:43:38.099Z,3.37
2018-07-07T19:46:14.916Z,2.20
2018-07-07T19:48:52.606Z,2.23
2018-07-07T19:51:29.556Z,2.27
2018-07-07T19:54:06.432Z,3.47
2018-07-07T19:56:44.006Z,3.50
2018-07-07T19:59:20.607Z,2.70
2018-07-07T20:01:57.314Z,2.97
2018-07-07T20:04:34.229Z,2.93
2018-07-07T20:07:11.194Z,4.50
2018-07-07T20:09:47.753Z,3.40
2018-07-07T20:12:24.111Z,2.80
2018-07-07T20:15:01.253Z,3.03
2018-07-07T20:17:48.828Z,3.40
2018-07-07T20:20:36.207Z,3.30
2018-07-07T20:23:14.363Z,3.20
2018-07-07T20:25:55.261Z,3.10
2018-07-07T20:28:36.960Z,2.93
2018-07-07T20:31:13.651Z,3.00
2018-07-07T20:33:50.114Z,3.60
2018-07-07T20:36:26.594Z,4.00
2018-07-07T20:39:03.079Z,4.73
2018-07-07T20:41:39.951Z,3.27
2018-07-07T20:44:16.999Z,3.70
2018-07-07T20:46:53.677Z,3.50
2018-07-07T20:49:30.645Z,3.67
2018-07-07T20:52:07.742Z,5.07
2018-07-07T20:54:44.290Z,4.60
2018-07-07T20:57:20.605Z,4.47
2018-07-07T20:59:57.065Z,4.63
2018-07-07T21:02:33.836Z,4.20
2018-07-07T21:05:17.851Z,4.07
2018-07-07T21:07:54.879Z,7.03
2018-07-07T21:10:31.380Z,4.60
2018-07-07T21:13:08.523Z,2.73
2018-07-07T21:15:45.711Z,2.87
2018-07-07T21:18:22.669Z,4.40
2018-07-07T21:20:58.808Z,3.00
2018-07-07T21:23:35.451Z,4.07
2018-07-07T21:26:12.092Z,3.47
2018-07-07T21:28:48.837Z,3.23
2018-07-07T21:31:25.092Z,4.30
2018-07-07T21:34:01.531Z,5.10
2018-07-07T21:36:38.348Z,2.77
2018-07-07T21:39:15.416Z,4.50
2018-07-07T21:41:52.353Z,3.67
2018-07-07T21:44:29.508Z,3.30
2018-07-07T21:47:06.482Z,3.67
2018-07-07T21:49:43.415Z,3.50
2018-07-07T21:52:20.191Z,3.70
2018-07-07T21:54:57.138Z,3.03
2018-07-07T21:57:38.807Z,3.90
2018-07-07T22:00:21.198Z,3.40
2018-07-07T22:03:02.752Z,3.33
2018-07-07T22:05:44.181Z,3.10
2018-07-07T22:08:20.681Z,3.07
2018-07-07T22:10:57.575Z,2.30
2018-07-07T22:13:34.499Z,3.33
2018-07-07T22:16:11.384Z,2.57
2018-07-07T22:18:47.740Z,2.63
2018-07-07T22:21:35.446Z,3.67
2018-07-07T22:24:12.626Z,3.07
2018-07-07T22:26:50.106Z,3.30
2018-07-07T22:29:26.566Z,2.47
2018-07-07T22:32:04.877Z,2.63
2018-07-07T22:34:41.651Z,2.47
2018-07-07T22:37:18.356Z,2.60
2018-07-07T22:39:55.126Z,3.30
2018-07-07T22:42:32.148Z,3.27
2018-07-07T22:45:09.256Z,3.80
2018-07-07T22:47:45.361Z,5.50
2018-07-07T22:50:21.588Z,3.73
2018-07-07T22:52:58.619Z,2.53
2018-07-07T22:55:35.657Z,2.47
2018-07-07T22:58:12.813Z,2.77
2018-07-07T23:00:50.656Z,3.33
2018-07-07T23:03:27.625Z,3.90
2018-07-07T23:06:04.533Z,2.47
2018-07-07T23:08:41.342Z,3.40
2018-07-07T23:11:18.200Z,3.90
2018-07-07T23:13:55.136Z,3.83
2018-07-07T23:16:32.592Z,2.90
2018-07-07T23:19:09.295Z,2.70
2018-07-07T23:21:46.253Z,3.00
2018-07-07T23:24:23.070Z,2.83
2018-07-07T23:26:59.977Z,3.70
2018-07-07T23:29:36.222Z,2.93
2018-07-07T23:32:12.464Z,2.23
2018-07-07T23:34:49.166Z,2.33
2018-07-07T23:37:25.239Z,3.57
2018-07-07T23:40:02.224Z,3.20
2018-07-07T23:42:39.645Z,2.47
2018-07-07T23:45:16.310Z,3.40
2018-07-07T23:47:53.027Z,3.10
2018-07-07T23:50:29.584Z,2.80
2018-07-07T23:53:06.409Z,3.13
2018-07-07T23:55:43.215Z,3.60
2018-07-07T23:58:20.105Z,2.77
